Decoded Metar for OMRK (RAS AL KHAIMAH in UNITED ARAB EMIRATES) (IATA:RKT) | Meteo·Mobile Aviation Weather
aviador You're here:

OMRK Decoded Metar

RAS AL KHAIMAH in UNITED ARAB EMIRATES
Report Time2019-01-19 17:00:00
UTC Time2019-01-19 17:25:52
Flight Rules mvfr MVFR
Wind230° at 04 kt
W.Decomp.*RWY 16: 1.4 kt HW 3.7 kt RCW
W.Rank230° ranks 8
Current wind is below 230° avg. (4.2)
Visibility7000 m
Phenomena:N/A
Clouds:Scattered 040 Hf
Expected CloudBase > 2,800 ft AGL from Temp-Dew spread
CeilingNone
Temp18°C (ISA +3)
Dew Point11°C (64% RH)
AAT16.9°C
QNH1018 hPa
Density Alt486 ft
Elevation102 ft
Report Wrong Elevation
Raw Report
METAR OMRK 191700Z 23004KT 7000 SCT040 18/11 Q1018 A3009=

Extra information for OMRK:More info

Metar Taf Metar & Taf Last 4 Metars F.Rules Stats Wind Profile Meteogram Temp Stats Airport Information Weather charts Add Link Nearby VenuesMetar ALERT Operation Metar Decoded Social comments